sensor_id;sensor_type;location;lat;lon;timestamp;pressure;altitude;pressure_sealevel;temperature;humidity
9717;BME280;4897;43.570;27.832;2023-02-26T00:02:20;97896.81;;;13.47;100.00
9717;BME280;4897;43.570;27.832;2023-02-26T00:04:47;97908.22;;;13.49;100.00
9717;BME280;4897;43.570;27.832;2023-02-26T00:07:14;97921.25;;;13.52;100.00
9717;BME280;4897;43.570;27.832;2023-02-26T00:09:40;97923.47;;;13.49;100.00
9717;BME280;4897;43.570;27.832;2023-02-26T00:12:09;97911.41;;;13.45;100.00
9717;BME280;4897;43.570;27.832;2023-02-26T00:14:37;97920.31;;;13.45;100.00
9717;BME280;4897;43.570;27.832;2023-02-26T00:17:28;97907.56;;;13.47;100.00
9717;BME280;4897;43.570;27.832;2023-02-26T00:20:00;97919.16;;;13.40;100.00
9717;BME280;4897;43.570;27.832;2023-02-26T00:22:29;97901.59;;;13.29;100.00
9717;BME280;4897;43.570;27.832;2023-02-26T00:24:56;97929.38;;;13.44;100.00
9717;BME280;4897;43.570;27.832;2023-02-26T00:27:23;97939.78;;;13.39;100.00
9717;BME280;4897;43.570;27.832;2023-02-26T00:29:50;97936.78;;;13.42;100.00
9717;BME280;4897;43.570;27.832;2023-02-26T00:32:18;97914.16;;;13.37;100.00
9717;BME280;4897;43.570;27.832;2023-02-26T00:34:47;97913.91;;;13.46;100.00
9717;BME280;4897;43.570;27.832;2023-02-26T00:37:23;97912.25;;;13.45;100.00
9717;BME280;4897;43.570;27.832;2023-02-26T00:40:00;97910.25;;;13.47;100.00
9717;BME280;4897;43.570;27.832;2023-02-26T00:42:33;97903.53;;;13.43;100.00
9717;BME280;4897;43.570;27.832;2023-02-26T00:45:01;97903.72;;;13.42;100.00
9717;BME280;4897;43.570;27.832;2023-02-26T00:47:33;97905.53;;;13.49;100.00
9717;BME280;4897;43.570;27.832;2023-02-26T00:50:13;97914.22;;;13.51;100.00
9717;BME280;4897;43.570;27.832;2023-02-26T00:52:48;97902.84;;;13.49;100.00
9717;BME280;4897;43.570;27.832;2023-02-26T00:55:18;97895.78;;;13.48;100.00
9717;BME280;4897;43.570;27.832;2023-02-26T00:57:45;97887.59;;;13.42;100.00
9717;BME280;4897;43.570;27.832;2023-02-26T01:00:13;97882.34;;;13.48;100.00
9717;BME280;4897;43.570;27.832;2023-02-26T01:02:41;97894.78;;;13.49;100.00
9717;BME280;4897;43.570;27.832;2023-02-26T01:05:11;97901.34;;;13.47;100.00
9717;BME280;4897;43.570;27.832;2023-02-26T01:07:41;97893.81;;;13.42;100.00
9717;BME280;4897;43.570;27.832;2023-02-26T01:10:10;97878.75;;;13.33;100.00
9717;BME280;4897;43.570;27.832;2023-02-26T01:12:41;97900.25;;;13.33;100.00
9717;BME280;4897;43.570;27.832;2023-02-26T01:15:09;97890.53;;;13.32;100.00
9717;BME280;4897;43.570;27.832;2023-02-26T01:17:41;97893.56;;;13.29;100.00
9717;BME280;4897;43.570;27.832;2023-02-26T01:20:16;97897.09;;;13.30;100.00
9717;BME280;4897;43.570;27.832;2023-02-26T01:22:49;97887.53;;;13.27;100.00
9717;BME280;4897;43.570;27.832;2023-02-26T01:25:22;97880.66;;;13.25;100.00
9717;BME280;4897;43.570;27.832;2023-02-26T01:27:51;97863.09;;;13.22;100.00
9717;BME280;4897;43.570;27.832;2023-02-26T01:30:19;97874.09;;;13.27;100.00
9717;BME280;4897;43.570;27.832;2023-02-26T01:32:49;97854.38;;;13.20;100.00
9717;BME280;4897;43.570;27.832;2023-02-26T01:35:34;97877.81;;;13.26;100.00
9717;BME280;4897;43.570;27.832;2023-02-26T01:38:09;97891.06;;;13.28;100.00
9717;BME280;4897;43.570;27.832;2023-02-26T01:40:57;97804.31;;;12.74;100.00
9717;BME280;4897;43.570;27.832;2023-02-26T01:43:33;97891.78;;;13.22;100.00
9717;BME280;4897;43.570;27.832;2023-02-26T01:46:05;97882.34;;;13.26;100.00
9717;BME280;4897;43.570;27.832;2023-02-26T01:48:37;97618.81;;;11.56;100.00
9717;BME280;4897;43.570;27.832;2023-02-26T01:51:05;97897.44;;;13.27;100.00
9717;BME280;4897;43.570;27.832;2023-02-26T01:53:32;97899.44;;;13.33;100.00
9717;BME280;4897;43.570;27.832;2023-02-26T01:56:02;97901.13;;;13.26;100.00
9717;BME280;4897;43.570;27.832;2023-02-26T01:58:33;97914.69;;;13.32;100.00
9717;BME280;4897;43.570;27.832;2023-02-26T02:01:01;97918.38;;;13.31;100.00
9717;BME280;4897;43.570;27.832;2023-02-26T02:03:31;97901.56;;;13.37;100.00
9717;BME280;4897;43.570;27.832;2023-02-26T02:06:02;97913.59;;;13.41;100.00
9717;BME280;4897;43.570;27.832;2023-02-26T02:08:33;97899.97;;;13.28;100.00
9717;BME280;4897;43.570;27.832;2023-02-26T02:11:00;97927.22;;;13.40;100.00
9717;BME280;4897;43.570;27.832;2023-02-26T02:13:47;97930.03;;;13.46;100.00
9717;BME280;4897;43.570;27.832;2023-02-26T02:16:26;97916.19;;;13.35;100.00
9717;BME280;4897;43.570;27.832;2023-02-26T02:19:04;97917.84;;;13.36;100.00
9717;BME280;4897;43.570;27.832;2023-02-26T02:21:52;97944.31;;;13.47;100.00
9717;BME280;4897;43.570;27.832;2023-02-26T02:24:27;97943.47;;;13.46;100.00
9717;BME280;4897;43.570;27.832;2023-02-26T02:27:03;97937.25;;;13.46;100.00
9717;BME280;4897;43.570;27.832;2023-02-26T02:32:45;97963.69;;;13.57;100.00
9717;BME280;4897;43.570;27.832;2023-02-26T02:35:17;97982.69;;;13.55;100.00
9717;BME280;4897;43.570;27.832;2023-02-26T02:37:47;97938.63;;;13.42;100.00
9717;BME280;4897;43.570;27.832;2023-02-26T02:40:19;97945.97;;;13.48;100.00
9717;BME280;4897;43.570;27.832;2023-02-26T02:42:51;97972.06;;;13.62;100.00
9717;BME280;4897;43.570;27.832;2023-02-26T02:45:23;97969.06;;;13.57;100.00
9717;BME280;4897;43.570;27.832;2023-02-26T02:47:56;98002.28;;;13.56;100.00
9717;BME280;4897;43.570;27.832;2023-02-26T02:50:27;97974.25;;;13.58;100.00
9717;BME280;4897;43.570;27.832;2023-02-26T02:52:59;97976.16;;;13.50;100.00
9717;BME280;4897;43.570;27.832;2023-02-26T02:55:29;97954.66;;;13.50;100.00
9717;BME280;4897;43.570;27.832;2023-02-26T02:57:59;97956.63;;;13.56;100.00
9717;BME280;4897;43.570;27.832;2023-02-26T03:00:30;97939.28;;;13.44;100.00
9717;BME280;4897;43.570;27.832;2023-02-26T03:03:07;97953.81;;;13.57;100.00
9717;BME280;4897;43.570;27.832;2023-02-26T03:05:36;97948.25;;;13.59;100.00
9717;BME280;4897;43.570;27.832;2023-02-26T03:08:08;97958.13;;;13.58;100.00
9717;BME280;4897;43.570;27.832;2023-02-26T03:10:36;97951.78;;;13.59;100.00
9717;BME280;4897;43.570;27.832;2023-02-26T03:13:04;97942.75;;;13.52;100.00
9717;BME280;4897;43.570;27.832;2023-02-26T03:15:35;97966.69;;;13.62;100.00
9717;BME280;4897;43.570;27.832;2023-02-26T03:18:13;97954.78;;;13.56;100.00
9717;BME280;4897;43.570;27.832;2023-02-26T03:20:51;97963.88;;;13.55;100.00
9717;BME280;4897;43.570;27.832;2023-02-26T03:23:24;97967.88;;;13.59;100.00
9717;BME280;4897;43.570;27.832;2023-02-26T03:25:55;97966.19;;;13.58;100.00
9717;BME280;4897;43.570;27.832;2023-02-26T03:28:28;97981.31;;;13.59;100.00
9717;BME280;4897;43.570;27.832;2023-02-26T03:31:00;97988.00;;;13.63;100.00
9717;BME280;4897;43.570;27.832;2023-02-26T03:33:37;97995.41;;;13.61;100.00
9717;BME280;4897;43.570;27.832;2023-02-26T03:36:07;97957.66;;;13.55;100.00
9717;BME280;4897;43.570;27.832;2023-02-26T03:38:42;97840.50;;;12.78;100.00
9717;BME280;4897;43.570;27.832;2023-02-26T03:41:14;97969.97;;;13.49;100.00
9717;BME280;4897;43.570;27.832;2023-02-26T03:43:45;97990.38;;;13.58;100.00
9717;BME280;4897;43.570;27.832;2023-02-26T03:46:17;97991.41;;;13.57;100.00
9717;BME280;4897;43.570;27.832;2023-02-26T03:48:50;97995.09;;;13.56;100.00
9717;BME280;4897;43.570;27.832;2023-02-26T03:51:18;97984.66;;;13.61;100.00
9717;BME280;4897;43.570;27.832;2023-02-26T03:53:49;97979.63;;;13.58;100.00
9717;BME280;4897;43.570;27.832;2023-02-26T03:56:22;97975.22;;;13.43;100.00
9717;BME280;4897;43.570;27.832;2023-02-26T03:58:51;98009.88;;;13.52;100.00
9717;BME280;4897;43.570;27.832;2023-02-26T04:01:22;97984.53;;;13.55;100.00
9717;BME280;4897;43.570;27.832;2023-02-26T04:03:56;97976.72;;;13.37;100.00
9717;BME280;4897;43.570;27.832;2023-02-26T04:06:25;98003.56;;;13.45;100.00
9717;BME280;4897;43.570;27.832;2023-02-26T04:08:53;98016.72;;;13.32;100.00
9717;BME280;4897;43.570;27.832;2023-02-26T04:11:21;98017.94;;;13.52;100.00
9717;BME280;4897;43.570;27.832;2023-02-26T04:13:50;98015.44;;;13.51;100.00
9717;BME280;4897;43.570;27.832;2023-02-26T04:16:17;98018.59;;;13.54;100.00
9717;BME280;4897;43.570;27.832;2023-02-26T04:18:44;98018.41;;;13.56;100.00
9717;BME280;4897;43.570;27.832;2023-02-26T04:21:13;98031.31;;;13.60;100.00
9717;BME280;4897;43.570;27.832;2023-02-26T04:23:41;98020.09;;;13.57;100.00
9717;BME280;4897;43.570;27.832;2023-02-26T04:26:08;98030.66;;;13.58;100.00
9717;BME280;4897;43.570;27.832;2023-02-26T04:28:34;98024.16;;;13.53;100.00
9717;BME280;4897;43.570;27.832;2023-02-26T04:31:02;98043.09;;;13.59;100.00
9717;BME280;4897;43.570;27.832;2023-02-26T04:33:29;98014.38;;;13.60;100.00
9717;BME280;4897;43.570;27.832;2023-02-26T04:35:56;98020.75;;;13.59;100.00
9717;BME280;4897;43.570;27.832;2023-02-26T04:38:25;98036.16;;;13.65;100.00
9717;BME280;4897;43.570;27.832;2023-02-26T04:40:52;98024.94;;;13.61;100.00
9717;BME280;4897;43.570;27.832;2023-02-26T04:43:18;98072.78;;;13.66;100.00
9717;BME280;4897;43.570;27.832;2023-02-26T04:45:45;98067.22;;;13.68;100.00
9717;BME280;4897;43.570;27.832;2023-02-26T04:48:12;98053.06;;;13.74;100.00
9717;BME280;4897;43.570;27.832;2023-02-26T04:50:40;98054.91;;;13.73;100.00
9717;BME280;4897;43.570;27.832;2023-02-26T04:53:07;98047.19;;;13.78;100.00
9717;BME280;4897;43.570;27.832;2023-02-26T04:55:36;98067.16;;;13.76;100.00
9717;BME280;4897;43.570;27.832;2023-02-26T04:58:03;98059.44;;;13.81;100.00
9717;BME280;4897;43.570;27.832;2023-02-26T05:00:30;98053.41;;;13.71;100.00
9717;BME280;4897;43.570;27.832;2023-02-26T05:02:57;98075.66;;;13.87;100.00
9717;BME280;4897;43.570;27.832;2023-02-26T05:05:24;98070.66;;;13.84;100.00
9717;BME280;4897;43.570;27.832;2023-02-26T05:07:50;98076.22;;;13.83;100.00
9717;BME280;4897;43.570;27.832;2023-02-26T05:10:20;98087.25;;;13.88;100.00
9717;BME280;4897;43.570;27.832;2023-02-26T05:12:48;98086.91;;;13.91;100.00
9717;BME280;4897;43.570;27.832;2023-02-26T05:15:15;98082.84;;;13.95;100.00
9717;BME280;4897;43.570;27.832;2023-02-26T05:17:42;98096.56;;;14.00;100.00
9717;BME280;4897;43.570;27.832;2023-02-26T05:20:10;98105.28;;;14.02;100.00
9717;BME280;4897;43.570;27.832;2023-02-26T05:22:37;98086.91;;;13.91;100.00
9717;BME280;4897;43.570;27.832;2023-02-26T05:25:05;98117.59;;;13.96;100.00
9717;BME280;4897;43.570;27.832;2023-02-26T05:27:32;98135.72;;;14.02;100.00
9717;BME280;4897;43.570;27.832;2023-02-26T05:30:01;98125.97;;;14.01;100.00
9717;BME280;4897;43.570;27.832;2023-02-26T05:32:28;98110.44;;;13.89;100.00
9717;BME280;4897;43.570;27.832;2023-02-26T05:34:54;98130.50;;;14.01;100.00
9717;BME280;4897;43.570;27.832;2023-02-26T05:37:21;98138.53;;;14.09;100.00
9717;BME280;4897;43.570;27.832;2023-02-26T05:39:51;98130.13;;;14.12;100.00
9717;BME280;4897;43.570;27.832;2023-02-26T05:42:18;98122.41;;;14.09;100.00
9717;BME280;4897;43.570;27.832;2023-02-26T05:44:45;98120.50;;;14.17;100.00
9717;BME280;4897;43.570;27.832;2023-02-26T05:47:13;98116.69;;;14.12;100.00
9717;BME280;4897;43.570;27.832;2023-02-26T05:49:40;98127.91;;;14.15;100.00
9717;BME280;4897;43.570;27.832;2023-02-26T05:52:06;98129.94;;;14.13;100.00
9717;BME280;4897;43.570;27.832;2023-02-26T05:54:33;98133.94;;;14.17;100.00
9717;BME280;4897;43.570;27.832;2023-02-26T05:57:00;98115.38;;;14.00;100.00
9717;BME280;4897;43.570;27.832;2023-02-26T05:59:27;98118.91;;;14.00;100.00
9717;BME280;4897;43.570;27.832;2023-02-26T06:01:54;98139.50;;;14.16;100.00
9717;BME280;4897;43.570;27.832;2023-02-26T06:04:22;98143.56;;;14.12;100.00
9717;BME280;4897;43.570;27.832;2023-02-26T06:06:49;98161.59;;;14.03;100.00
9717;BME280;4897;43.570;27.832;2023-02-26T06:09:16;98131.69;;;13.98;100.00
9717;BME280;4897;43.570;27.832;2023-02-26T06:11:43;98112.47;;;13.87;100.00
9717;BME280;4897;43.570;27.832;2023-02-26T06:14:10;98139.84;;;14.13;100.00
9717;BME280;4897;43.570;27.832;2023-02-26T06:16:37;98132.44;;;14.15;100.00
9717;BME280;4897;43.570;27.832;2023-02-26T06:19:03;98151.56;;;14.20;100.00
9717;BME280;4897;43.570;27.832;2023-02-26T06:21:32;98171.75;;;14.16;100.00
9717;BME280;4897;43.570;27.832;2023-02-26T06:23:59;98204.38;;;14.13;100.00
9717;BME280;4897;43.570;27.832;2023-02-26T06:26:25;98215.13;;;14.13;100.00
9717;BME280;4897;43.570;27.832;2023-02-26T06:28:52;98210.72;;;14.20;100.00
9717;BME280;4897;43.570;27.832;2023-02-26T06:31:19;98202.47;;;14.21;100.00
9717;BME280;4897;43.570;27.832;2023-02-26T06:33:46;98198.28;;;14.19;100.00
9717;BME280;4897;43.570;27.832;2023-02-26T06:36:13;98221.81;;;14.17;100.00
9717;BME280;4897;43.570;27.832;2023-02-26T06:38:41;98202.84;;;14.10;100.00
9717;BME280;4897;43.570;27.832;2023-02-26T06:41:11;98210.59;;;14.13;100.00
9717;BME280;4897;43.570;27.832;2023-02-26T06:43:38;98197.66;;;14.09;100.00
9717;BME280;4897;43.570;27.832;2023-02-26T06:46:05;98178.56;;;14.04;100.00
9717;BME280;4897;43.570;27.832;2023-02-26T06:48:32;98175.50;;;14.07;100.00
9717;BME280;4897;43.570;27.832;2023-02-26T06:50:59;98163.09;;;14.06;100.00
9717;BME280;4897;43.570;27.832;2023-02-26T06:53:25;98117.00;;;13.86;100.00
9717;BME280;4897;43.570;27.832;2023-02-26T06:55:54;98150.97;;;14.10;100.00
9717;BME280;4897;43.570;27.832;2023-02-26T06:58:22;98124.81;;;14.04;100.00
9717;BME280;4897;43.570;27.832;2023-02-26T07:00:49;98156.03;;;14.05;100.00
9717;BME280;4897;43.570;27.832;2023-02-26T07:03:17;98151.91;;;14.17;100.00
9717;BME280;4897;43.570;27.832;2023-02-26T07:05:44;98165.69;;;14.22;100.00
9717;BME280;4897;43.570;27.832;2023-02-26T07:08:12;98174.59;;;14.22;100.00
9717;BME280;4897;43.570;27.832;2023-02-26T07:10:40;98179.31;;;14.20;100.00
9717;BME280;4897;43.570;27.832;2023-02-26T07:13:08;98157.66;;;14.14;100.00
9717;BME280;4897;43.570;27.832;2023-02-26T07:15:35;98183.13;;;14.26;100.00
9717;BME280;4897;43.570;27.832;2023-02-26T07:18:02;98135.19;;;14.07;100.00
9717;BME280;4897;43.570;27.832;2023-02-26T07:20:29;98155.22;;;14.27;100.00
9717;BME280;4897;43.570;27.832;2023-02-26T07:22:57;98184.56;;;14.45;100.00
9717;BME280;4897;43.570;27.832;2023-02-26T07:25:24;98179.38;;;14.43;100.00
9717;BME280;4897;43.570;27.832;2023-02-26T07:27:50;98157.47;;;14.46;100.00
9717;BME280;4897;43.570;27.832;2023-02-26T07:30:19;98182.94;;;14.58;100.00
9717;BME280;4897;43.570;27.832;2023-02-26T07:32:46;98175.38;;;14.62;100.00
9717;BME280;4897;43.570;27.832;2023-02-26T07:35:13;98179.00;;;14.69;100.00
9717;BME280;4897;43.570;27.832;2023-02-26T07:37:39;98185.59;;;14.66;100.00
9717;BME280;4897;43.570;27.832;2023-02-26T07:40:07;98193.09;;;14.71;100.00
9717;BME280;4897;43.570;27.832;2023-02-26T07:42:34;98205.75;;;14.70;100.00
9717;BME280;4897;43.570;27.832;2023-02-26T07:45:02;98198.50;;;14.71;100.00
9717;BME280;4897;43.570;27.832;2023-02-26T07:47:30;98199.72;;;14.68;100.00
9717;BME280;4897;43.570;27.832;2023-02-26T07:49:57;98178.13;;;14.54;100.00
9717;BME280;4897;43.570;27.832;2023-02-26T07:52:24;98202.56;;;14.67;100.00
9717;BME280;4897;43.570;27.832;2023-02-26T07:54:51;98169.75;;;14.49;100.00
9717;BME280;4897;43.570;27.832;2023-02-26T07:57:18;98149.34;;;14.54;100.00
9717;BME280;4897;43.570;27.832;2023-02-26T07:59:45;98173.75;;;14.53;100.00
9717;BME280;4897;43.570;27.832;2023-02-26T08:02:12;98183.25;;;14.63;100.00
9717;BME280;4897;43.570;27.832;2023-02-26T08:04:40;98176.22;;;14.62;100.00
9717;BME280;4897;43.570;27.832;2023-02-26T08:07:08;98096.13;;;14.19;100.00
9717;BME280;4897;43.570;27.832;2023-02-26T08:09:35;98191.56;;;14.76;100.00
9717;BME280;4897;43.570;27.832;2023-02-26T08:12:02;98181.75;;;14.83;100.00
9717;BME280;4897;43.570;27.832;2023-02-26T08:14:29;98172.56;;;14.78;100.00
9717;BME280;4897;43.570;27.832;2023-02-26T08:16:56;98171.31;;;15.03;100.00
9717;BME280;4897;43.570;27.832;2023-02-26T08:19:22;98169.41;;;15.11;100.00
9717;BME280;4897;43.570;27.832;2023-02-26T08:21:51;98177.50;;;15.26;100.00
9717;BME280;4897;43.570;27.832;2023-02-26T08:24:19;98134.31;;;15.19;100.00
9717;BME280;4897;43.570;27.832;2023-02-26T08:26:46;98146.13;;;15.33;100.00
9717;BME280;4897;43.570;27.832;2023-02-26T08:29:13;98165.53;;;15.29;100.00
9717;BME280;4897;43.570;27.832;2023-02-26T08:31:40;98156.22;;;15.16;100.00
9717;BME280;4897;43.570;27.832;2023-02-26T08:34:07;98172.22;;;15.33;100.00
9717;BME280;4897;43.570;27.832;2023-02-26T08:36:34;98138.88;;;15.34;100.00
9717;BME280;4897;43.570;27.832;2023-02-26T08:39:03;98175.91;;;15.32;100.00
9717;BME280;4897;43.570;27.832;2023-02-26T08:41:30;98156.66;;;15.43;100.00
9717;BME280;4897;43.570;27.832;2023-02-26T08:43:57;98172.09;;;15.49;100.00
9717;BME280;4897;43.570;27.832;2023-02-26T08:46:25;98150.28;;;15.36;100.00
9717;BME280;4897;43.570;27.832;2023-02-26T08:48:52;98132.38;;;15.28;100.00
9717;BME280;4897;43.570;27.832;2023-02-26T08:51:19;98167.16;;;15.52;100.00
9717;BME280;4897;43.570;27.832;2023-02-26T08:53:47;98102.53;;;15.00;100.00
9717;BME280;4897;43.570;27.832;2023-02-26T08:56:16;98163.69;;;15.44;100.00
9717;BME280;4897;43.570;27.832;2023-02-26T08:58:43;98154.47;;;15.38;100.00
9717;BME280;4897;43.570;27.832;2023-02-26T09:01:10;98142.16;;;15.44;100.00
9717;BME280;4897;43.570;27.832;2023-02-26T09:03:37;98153.63;;;15.60;100.00
9717;BME280;4897;43.570;27.832;2023-02-26T09:06:04;98162.06;;;15.72;100.00
9717;BME280;4897;43.570;27.832;2023-02-26T09:08:31;98162.50;;;15.90;100.00
9717;BME280;4897;43.570;27.832;2023-02-26T09:10:59;98160.69;;;16.12;100.00
9717;BME280;4897;43.570;27.832;2023-02-26T09:13:28;98145.50;;;16.25;100.00
9717;BME280;4897;43.570;27.832;2023-02-26T09:15:55;98159.97;;;16.39;100.00
9717;BME280;4897;43.570;27.832;2023-02-26T09:18:23;98179.78;;;16.60;100.00
9717;BME280;4897;43.570;27.832;2023-02-26T09:20:52;98166.25;;;16.82;100.00
9717;BME280;4897;43.570;27.832;2023-02-26T09:23:19;98168.94;;;16.82;100.00
9717;BME280;4897;43.570;27.832;2023-02-26T09:25:51;98158.56;;;16.78;100.00
9717;BME280;4897;43.570;27.832;2023-02-26T09:28:19;98153.03;;;16.87;100.00
9717;BME280;4897;43.570;27.832;2023-02-26T09:30:50;98177.38;;;16.93;100.00
9717;BME280;4897;43.570;27.832;2023-02-26T09:33:17;98151.03;;;16.95;100.00
9717;BME280;4897;43.570;27.832;2023-02-26T09:35:46;98158.31;;;17.22;100.00
9717;BME280;4897;43.570;27.832;2023-02-26T09:38:13;98154.28;;;17.39;100.00
9717;BME280;4897;43.570;27.832;2023-02-26T09:40:43;98157.69;;;17.82;100.00
9717;BME280;4897;43.570;27.832;2023-02-26T09:43:31;98160.09;;;18.05;100.00
9717;BME280;4897;43.570;27.832;2023-02-26T09:46:05;98142.91;;;17.78;100.00
9717;BME280;4897;43.570;27.832;2023-02-26T09:48:37;98155.88;;;17.89;100.00
9717;BME280;4897;43.570;27.832;2023-02-26T09:51:07;98148.47;;;17.70;100.00
9717;BME280;4897;43.570;27.832;2023-02-26T09:53:40;98148.22;;;17.65;100.00
9717;BME280;4897;43.570;27.832;2023-02-26T09:56:13;98174.56;;;17.56;100.00
9717;BME280;4897;43.570;27.832;2023-02-26T09:58:42;98156.28;;;17.52;100.00
9717;BME280;4897;43.570;27.832;2023-02-26T10:01:15;98129.28;;;17.31;100.00
9717;BME280;4897;43.570;27.832;2023-02-26T10:03:53;98149.06;;;17.38;100.00
9717;BME280;4897;43.570;27.832;2023-02-26T10:06:25;98143.78;;;17.51;100.00
9717;BME280;4897;43.570;27.832;2023-02-26T10:09:18;98130.91;;;17.53;100.00
9717;BME280;4897;43.570;27.832;2023-02-26T10:11:49;98144.34;;;17.46;100.00
9717;BME280;4897;43.570;27.832;2023-02-26T10:14:22;98114.81;;;17.45;100.00
9717;BME280;4897;43.570;27.832;2023-02-26T10:16:55;98130.25;;;17.23;100.00
9717;BME280;4897;43.570;27.832;2023-02-26T10:19:26;98175.22;;;17.31;100.00
9717;BME280;4897;43.570;27.832;2023-02-26T10:21:57;98149.25;;;17.36;100.00
9717;BME280;4897;43.570;27.832;2023-02-26T10:24:31;98145.97;;;17.41;100.00
9717;BME280;4897;43.570;27.832;2023-02-26T10:27:05;98127.19;;;17.54;100.00
9717;BME280;4897;43.570;27.832;2023-02-26T10:29:38;98148.22;;;17.65;100.00
9717;BME280;4897;43.570;27.832;2023-02-26T10:32:19;98141.06;;;17.51;100.00
9717;BME280;4897;43.570;27.832;2023-02-26T10:34:51;98149.06;;;17.38;100.00
9717;BME280;4897;43.570;27.832;2023-02-26T10:37:31;98154.31;;;17.46;100.00
9717;BME280;4897;43.570;27.832;2023-02-26T10:40:02;98147.19;;;17.38;100.00
9717;BME280;4897;43.570;27.832;2023-02-26T10:42:39;98151.34;;;17.34;100.00
9717;BME280;4897;43.570;27.832;2023-02-26T10:45:21;98195.00;;;17.38;100.00
9717;BME280;4897;43.570;27.832;2023-02-26T10:48:00;98168.38;;;17.35;100.00
9717;BME280;4897;43.570;27.832;2023-02-26T10:50:30;98146.88;;;17.20;100.00
9717;BME280;4897;43.570;27.832;2023-02-26T10:52:57;98148.63;;;17.34;100.00
9717;BME280;4897;43.570;27.832;2023-02-26T10:55:33;98163.13;;;17.27;100.00
9717;BME280;4897;43.570;27.832;2023-02-26T10:58:10;98157.41;;;17.15;100.00
9717;BME280;4897;43.570;27.832;2023-02-26T11:00:39;98176.22;;;17.30;100.00
9717;BME280;4897;43.570;27.832;2023-02-26T11:03:12;98087.31;;;16.79;100.00
9717;BME280;4897;43.570;27.832;2023-02-26T11:05:42;98145.13;;;17.13;100.00
9717;BME280;4897;43.570;27.832;2023-02-26T11:08:14;98147.31;;;17.24;100.00
9717;BME280;4897;43.570;27.832;2023-02-26T11:10:46;98145.50;;;17.31;100.00
9717;BME280;4897;43.570;27.832;2023-02-26T11:13:13;98158.22;;;17.37;100.00
9717;BME280;4897;43.570;27.832;2023-02-26T11:15:41;98130.69;;;16.99;100.00
9717;BME280;4897;43.570;27.832;2023-02-26T11:18:14;98165.63;;;17.28;100.00
9717;BME280;4897;43.570;27.832;2023-02-26T11:20:44;98154.41;;;17.31;100.00
9717;BME280;4897;43.570;27.832;2023-02-26T11:23:13;98162.56;;;17.38;100.00
9717;BME280;4897;43.570;27.832;2023-02-26T11:25:43;98156.69;;;17.28;100.00
9717;BME280;4897;43.570;27.832;2023-02-26T11:28:19;98145.38;;;17.18;100.00
9717;BME280;4897;43.570;27.832;2023-02-26T11:30:46;98152.97;;;17.29;100.00
9717;BME280;4897;43.570;27.832;2023-02-26T11:33:21;98144.28;;;17.40;100.00
9717;BME280;4897;43.570;27.832;2023-02-26T11:35:49;98145.78;;;17.42;100.00
9717;BME280;4897;43.570;27.832;2023-02-26T11:38:20;98158.06;;;17.45;100.00
9717;BME280;4897;43.570;27.832;2023-02-26T11:40:52;98174.56;;;17.50;100.00
9717;BME280;4897;43.570;27.832;2023-02-26T11:43:21;98168.41;;;17.63;100.00
9717;BME280;4897;43.570;27.832;2023-02-26T11:45:53;98176.00;;;17.52;100.00
9717;BME280;4897;43.570;27.832;2023-02-26T11:48:25;98165.50;;;17.64;100.00
9717;BME280;4897;43.570;27.832;2023-02-26T11:50:56;98183.94;;;17.88;100.00
9717;BME280;4897;43.570;27.832;2023-02-26T11:53:29;98195.63;;;17.95;100.00
9717;BME280;4897;43.570;27.832;2023-02-26T11:55:59;98186.25;;;17.91;100.00
9717;BME280;4897;43.570;27.832;2023-02-26T11:58:30;98190.44;;;17.94;100.00
9717;BME280;4897;43.570;27.832;2023-02-26T12:01:02;98192.94;;;17.95;100.00
9717;BME280;4897;43.570;27.832;2023-02-26T12:03:33;98196.91;;;17.99;100.00
9717;BME280;4897;43.570;27.832;2023-02-26T12:06:05;98180.31;;;17.75;100.00
9717;BME280;4897;43.570;27.832;2023-02-26T12:08:35;98185.91;;;17.73;100.00
9717;BME280;4897;43.570;27.832;2023-02-26T12:11:17;98184.81;;;17.61;100.00
9717;BME280;4897;43.570;27.832;2023-02-26T12:13:55;98163.09;;;17.48;100.00
9717;BME280;4897;43.570;27.832;2023-02-26T12:16:30;98026.66;;;16.75;100.00
9717;BME280;4897;43.570;27.832;2023-02-26T12:19:05;98173.75;;;17.56;100.00
9717;BME280;4897;43.570;27.832;2023-02-26T12:21:55;98149.66;;;17.61;100.00
9717;BME280;4897;43.570;27.832;2023-02-26T12:24:57;98166.19;;;17.73;100.00
9717;BME280;4897;43.570;27.832;2023-02-26T12:27:39;98161.28;;;17.89;100.00
9717;BME280;4897;43.570;27.832;2023-02-26T12:30:26;98161.31;;;17.96;100.00
9717;BME280;4897;43.570;27.832;2023-02-26T12:33:07;98154.19;;;17.88;100.00
9717;BME280;4897;43.570;27.832;2023-02-26T12:36:01;98163.00;;;18.03;100.00
9717;BME280;4897;43.570;27.832;2023-02-26T12:38:38;98158.78;;;17.94;100.00
9717;BME280;4897;43.570;27.832;2023-02-26T12:41:37;98177.16;;;18.05;100.00
9717;BME280;4897;43.570;27.832;2023-02-26T12:44:21;98172.72;;;17.91;100.00
9717;BME280;4897;43.570;27.832;2023-02-26T12:47:03;98174.19;;;17.94;100.00
9717;BME280;4897;43.570;27.832;2023-02-26T12:49:49;98190.56;;;18.26;100.00
9717;BME280;4897;43.570;27.832;2023-02-26T12:52:50;98147.47;;;18.18;100.00
9717;BME280;4897;43.570;27.832;2023-02-26T12:55:26;98167.59;;;18.09;100.00
9717;BME280;4897;43.570;27.832;2023-02-26T12:58:24;98183.78;;;18.03;100.00
9717;BME280;4897;43.570;27.832;2023-02-26T13:01:06;98199.09;;;17.83;100.00
9717;BME280;4897;43.570;27.832;2023-02-26T13:03:57;98192.28;;;17.59;100.00
9717;BME280;4897;43.570;27.832;2023-02-26T13:06:48;98192.97;;;17.68;100.00
9717;BME280;4897;43.570;27.832;2023-02-26T13:09:30;98199.06;;;17.76;100.00
9717;BME280;4897;43.570;27.832;2023-02-26T13:12:06;98196.34;;;17.76;100.00
9717;BME280;4897;43.570;27.832;2023-02-26T13:14:44;98206.16;;;17.77;100.00
9717;BME280;4897;43.570;27.832;2023-02-26T13:17:19;98203.75;;;17.95;100.00
9717;BME280;4897;43.570;27.832;2023-02-26T13:19:51;98200.41;;;17.93;100.00
9717;BME280;4897;43.570;27.832;2023-02-26T13:22:24;98182.94;;;18.02;100.00
9717;BME280;4897;43.570;27.832;2023-02-26T13:24:59;98197.19;;;17.77;100.00